createdAt,value
2019-02-07T00:00:58.460Z,3.53
2019-02-07T00:03:48.838Z,3.53
2019-02-07T00:06:38.855Z,3.53
2019-02-07T00:09:28.778Z,3.58
2019-02-07T00:12:18.635Z,3.64
2019-02-07T00:15:09.220Z,3.66
2019-02-07T00:17:58.863Z,3.67
2019-02-07T00:20:49.745Z,3.73
2019-02-07T00:23:40.011Z,3.75
2019-02-07T00:26:30.157Z,3.76
2019-02-07T00:29:20.577Z,3.77
2019-02-07T00:32:10.486Z,3.73
2019-02-07T00:35:00.353Z,3.76
2019-02-07T00:37:50.379Z,3.79
2019-02-07T00:40:40.414Z,3.79
2019-02-07T00:43:30.347Z,3.77
2019-02-07T00:46:20.074Z,3.77
2019-02-07T00:49:09.938Z,3.76
2019-02-07T00:52:00.246Z,3.82
2019-02-07T00:54:50.193Z,3.82
2019-02-07T00:57:40.078Z,3.84
2019-02-07T01:00:30.196Z,3.89
2019-02-07T01:03:19.868Z,3.90
2019-02-07T01:06:09.724Z,3.94
2019-02-07T01:09:00.023Z,3.93
2019-02-07T01:11:52.142Z,3.94
2019-02-07T01:14:42.532Z,3.95
2019-02-07T01:17:32.266Z,3.91
2019-02-07T01:20:22.521Z,3.91
2019-02-07T01:23:12.673Z,3.94
2019-02-07T01:26:02.734Z,3.96
2019-02-07T01:28:52.446Z,3.98
2019-02-07T01:31:42.185Z,3.98
2019-02-07T01:34:32.147Z,3.96
2019-02-07T01:37:23.380Z,3.97
2019-02-07T01:40:17.132Z,3.92
2019-02-07T01:43:06.691Z,3.94
2019-02-07T01:45:57.110Z,3.94
2019-02-07T01:48:46.983Z,3.90
2019-02-07T01:51:37.258Z,3.95
2019-02-07T01:54:27.271Z,4.00
2019-02-07T01:57:17.274Z,4.00
2019-02-07T02:00:11.506Z,3.96
2019-02-07T02:03:02.301Z,3.95
2019-02-07T02:05:53.175Z,3.96
2019-02-07T02:08:42.809Z,3.96
2019-02-07T02:11:34.276Z,3.98
2019-02-07T02:14:24.425Z,4.02
2019-02-07T02:17:14.498Z,4.04
2019-02-07T02:20:04.953Z,4.01
2019-02-07T02:22:56.124Z,4.07
2019-02-07T02:25:46.246Z,4.07
2019-02-07T02:28:37.400Z,4.07
2019-02-07T02:31:27.432Z,4.04
2019-02-07T02:34:17.422Z,4.08
2019-02-07T02:37:07.399Z,4.10
2019-02-07T02:39:57.453Z,4.11
2019-02-07T02:42:47.569Z,4.16
2019-02-07T02:45:38.035Z,4.12
2019-02-07T02:48:28.952Z,4.09
2019-02-07T02:51:19.076Z,4.09
2019-02-07T02:54:29.264Z,4.13
2019-02-07T02:57:19.417Z,4.14
2019-02-07T03:00:18.236Z,4.08
2019-02-07T03:03:19.187Z,4.13
2019-02-07T03:06:19.675Z,4.11
2019-02-07T03:09:22.028Z,4.18
2019-02-07T03:12:23.451Z,4.17
2019-02-07T03:15:34.477Z,4.19
2019-02-07T03:18:38.792Z,4.26
2019-02-07T03:21:35.222Z,4.33
2019-02-07T03:24:47.085Z,4.35
2019-02-07T03:27:55.667Z,4.39
2019-02-07T03:31:19.009Z,4.40
2019-02-07T03:34:20.963Z,4.43
2019-02-07T03:37:32.626Z,4.38
2019-02-07T03:40:40.329Z,4.43
2019-02-07T03:43:55.526Z,4.50
2019-02-07T03:47:02.667Z,4.51
2019-02-07T03:50:08.673Z,4.43
2019-02-07T03:53:19.978Z,4.43
2019-02-07T03:56:27.940Z,4.39
2019-02-07T03:59:35.270Z,4.32
2019-02-07T04:03:02.677Z,4.32
2019-02-07T04:06:11.560Z,4.32
2019-02-07T04:09:10.713Z,4.31
2019-02-07T04:12:14.659Z,4.32
2019-02-07T04:15:23.846Z,4.37
2019-02-07T04:18:35.813Z,4.39
2019-02-07T04:21:40.430Z,4.36
2019-02-07T04:25:04.784Z,4.35
2019-02-07T04:28:06.830Z,4.39
2019-02-07T04:31:22.364Z,4.34
2019-02-07T04:34:27.326Z,4.41
2019-02-07T04:37:40.531Z,4.44
2019-02-07T04:40:49.407Z,4.51
2019-02-07T04:44:02.988Z,4.50
2019-02-07T04:47:11.705Z,4.48
2019-02-07T04:50:19.479Z,4.50
2019-02-07T04:53:27.308Z,4.53
2019-02-07T04:56:34.112Z,4.54
2019-02-07T04:59:47.641Z,4.45
2019-02-07T05:03:01.797Z,4.43
2019-02-07T05:06:00.901Z,4.40
2019-02-07T05:08:58.441Z,4.31
2019-02-07T05:12:06.191Z,4.32
2019-02-07T05:15:07.288Z,4.29
2019-02-07T05:18:25.389Z,4.29
2019-02-07T05:21:34.721Z,4.25
2019-02-07T05:24:41.455Z,4.24
2019-02-07T05:27:49.470Z,4.28
2019-02-07T05:30:45.580Z,4.27
2019-02-07T05:33:50.944Z,4.28
2019-02-07T05:37:07.652Z,4.30
2019-02-07T05:40:15.035Z,4.30
2019-02-07T05:43:31.743Z,4.15
2019-02-07T05:46:52.875Z,4.09
2019-02-07T05:49:57.806Z,3.94
2019-02-07T05:53:05.551Z,3.99
2019-02-07T05:56:10.722Z,3.96
2019-02-07T05:59:07.786Z,3.97
2019-02-07T06:02:09.860Z,3.98
2019-02-07T06:05:13.413Z,3.99
2019-02-07T06:08:31.265Z,4.02
2019-02-07T06:11:32.038Z,4.04
2019-02-07T06:14:39.758Z,4.03
2019-02-07T06:17:47.070Z,3.98
2019-02-07T06:20:58.701Z,3.89
2019-02-07T06:24:07.312Z,3.86
2019-02-07T06:27:16.141Z,3.86
2019-02-07T06:30:27.250Z,3.81
2019-02-07T06:33:36.009Z,3.70
2019-02-07T06:36:37.438Z,3.52
2019-02-07T06:39:44.701Z,3.57
2019-02-07T06:42:42.168Z,3.63
2019-02-07T06:45:38.655Z,3.70
2019-02-07T06:48:37.700Z,3.70
2019-02-07T06:51:35.156Z,3.83
2019-02-07T06:54:45.233Z,3.96
2019-02-07T06:57:53.984Z,4.01
2019-02-07T07:00:57.327Z,4.13
2019-02-07T07:04:07.762Z,4.19
2019-02-07T07:07:13.150Z,4.23
2019-02-07T07:10:21.763Z,4.25
2019-02-07T07:13:38.005Z,4.32
2019-02-07T07:16:40.326Z,4.28
2019-02-07T07:19:48.325Z,4.40
2019-02-07T07:22:56.345Z,4.46
2019-02-07T07:26:03.937Z,4.41
2019-02-07T07:29:19.427Z,4.44
2019-02-07T07:32:22.827Z,4.39
2019-02-07T07:35:39.952Z,4.46
2019-02-07T07:38:54.012Z,4.60
2019-02-07T07:42:11.224Z,4.77
2019-02-07T07:45:19.078Z,4.82
2019-02-07T07:48:27.352Z,4.98
2019-02-07T07:51:35.162Z,5.07
2019-02-07T07:54:44.188Z,5.16
2019-02-07T07:57:55.943Z,5.23
2019-02-07T08:01:03.708Z,5.18
2019-02-07T08:04:15.473Z,5.29
2019-02-07T08:07:19.579Z,5.29
2019-02-07T08:10:39.983Z,5.27
2019-02-07T08:14:03.747Z,5.38
2019-02-07T08:17:24.907Z,5.41
2019-02-07T08:20:33.838Z,5.48
2019-02-07T08:23:34.979Z,5.54
2019-02-07T08:26:43.445Z,5.45
2019-02-07T08:30:07.248Z,5.59
2019-02-07T08:33:11.917Z,5.65
2019-02-07T08:36:21.204Z,5.73
2019-02-07T08:39:30.412Z,5.77
2019-02-07T08:42:39.419Z,5.84
2019-02-07T08:45:43.265Z,5.89
2019-02-07T08:48:48.933Z,5.99
2019-02-07T08:52:08.801Z,5.99
2019-02-07T08:55:11.900Z,6.05
2019-02-07T08:58:20.517Z,6.13
2019-02-07T09:01:21.044Z,6.22
2019-02-07T09:04:39.414Z,6.26
2019-02-07T09:08:03.671Z,6.32
2019-02-07T09:11:11.632Z,6.34
2019-02-07T09:14:23.491Z,6.27
2019-02-07T09:17:24.526Z,6.28
2019-02-07T09:20:24.514Z,6.39
2019-02-07T09:23:39.334Z,6.50
2019-02-07T09:26:47.183Z,6.64
2019-02-07T09:29:54.833Z,6.72
2019-02-07T09:32:58.727Z,6.77
2019-02-07T09:36:10.221Z,6.74
2019-02-07T09:39:17.525Z,6.77
2019-02-07T09:42:25.494Z,6.89
2019-02-07T09:45:44.096Z,6.94
2019-02-07T09:48:55.871Z,6.84
2019-02-07T09:51:54.235Z,6.90
2019-02-07T09:55:03.466Z,6.81
2019-02-07T09:58:07.659Z,6.77
2019-02-07T10:01:15.502Z,6.90
2019-02-07T10:04:23.388Z,6.93
2019-02-07T10:07:21.690Z,7.00
2019-02-07T10:10:40.720Z,6.94
2019-02-07T10:14:07.709Z,7.00
2019-02-07T10:17:14.779Z,6.99
2019-02-07T10:20:23.675Z,6.97
2019-02-07T10:23:26.494Z,7.00
2019-02-07T10:26:30.822Z,7.04
2019-02-07T10:29:40.160Z,7.09
2019-02-07T10:32:44.675Z,7.10
2019-02-07T10:35:52.070Z,7.03
2019-02-07T10:38:56.700Z,7.04
2019-02-07T10:41:57.757Z,7.04
2019-02-07T10:45:04.951Z,7.17
2019-02-07T10:48:19.530Z,7.15
2019-02-07T10:51:28.723Z,7.24
2019-02-07T10:54:36.245Z,7.39
2019-02-07T10:57:43.935Z,7.41
2019-02-07T11:01:11.221Z,7.44
2019-02-07T11:04:21.333Z,7.46
2019-02-07T11:07:26.437Z,7.41
2019-02-07T11:10:50.512Z,7.36
2019-02-07T11:14:10.986Z,7.28
2019-02-07T11:17:18.158Z,7.13
2019-02-07T11:20:33.324Z,7.12
2019-02-07T11:23:58.610Z,7.11
2019-02-07T11:27:07.370Z,7.02
2019-02-07T11:30:09.229Z,6.96
2019-02-07T11:33:27.282Z,6.94
2019-02-07T11:36:36.012Z,6.85
2019-02-07T11:39:44.860Z,6.79
2019-02-07T11:42:54.319Z,6.75
2019-02-07T11:45:58.275Z,6.81
2019-02-07T11:49:06.604Z,6.90
2019-02-07T11:52:09.064Z,6.99
2019-02-07T11:55:13.912Z,7.20
2019-02-07T11:58:13.911Z,7.39
2019-02-07T12:01:21.706Z,7.55
2019-02-07T12:04:33.296Z,7.73
2019-02-07T12:07:37.732Z,7.88
2019-02-07T12:10:37.147Z,8.00
2019-02-07T12:13:51.727Z,8.06
2019-02-07T12:17:10.907Z,8.04
2019-02-07T12:20:23.682Z,8.19
2019-02-07T12:23:27.803Z,8.12
2019-02-07T12:26:46.045Z,8.05
2019-02-07T12:29:53.388Z,8.06
2019-02-07T12:33:04.649Z,8.03
2019-02-07T12:36:02.192Z,7.87
2019-02-07T12:38:58.300Z,7.65
2019-02-07T12:41:58.532Z,7.51
2019-02-07T12:45:17.387Z,7.45
2019-02-07T12:48:25.311Z,7.39
2019-02-07T12:51:40.940Z,7.16
2019-02-07T12:54:54.583Z,6.95
2019-02-07T12:58:01.835Z,6.87
2019-02-07T13:01:17.504Z,6.74
2019-02-07T13:04:26.212Z,6.64
2019-02-07T13:07:47.950Z,6.54
2019-02-07T13:10:56.495Z,6.35
2019-02-07T13:14:01.116Z,6.20
2019-02-07T13:17:08.569Z,6.04
2019-02-07T13:20:12.097Z,5.89
2019-02-07T13:23:24.414Z,5.70
2019-02-07T13:26:23.821Z,5.60
2019-02-07T13:29:35.814Z,5.51
2019-02-07T13:32:37.783Z,5.46
2019-02-07T13:35:53.055Z,5.50
2019-02-07T13:39:00.129Z,5.55
2019-02-07T13:42:07.497Z,5.63
2019-02-07T13:45:25.427Z,5.80
2019-02-07T13:48:33.370Z,5.87
2019-02-07T13:51:42.181Z,5.88
2019-02-07T13:54:53.698Z,5.90
2019-02-07T13:57:53.300Z,5.94
2019-02-07T14:01:00.885Z,5.98
2019-02-07T14:04:18.727Z,6.02
2019-02-07T14:07:27.423Z,6.06
2019-02-07T14:10:32.997Z,6.07
2019-02-07T14:13:41.215Z,6.15
2019-02-07T14:16:54.236Z,6.12
2019-02-07T14:20:06.404Z,6.20
2019-02-07T14:23:05.051Z,6.26
2019-02-07T14:26:12.771Z,6.29
2019-02-07T14:29:16.701Z,6.42
2019-02-07T14:32:25.470Z,6.54
2019-02-07T14:35:28.185Z,6.61
2019-02-07T14:38:46.551Z,6.69
2019-02-07T14:42:04.640Z,6.69
2019-02-07T14:45:19.185Z,6.67
2019-02-07T14:48:11.114Z,6.61
2019-02-07T14:51:01.162Z,6.62
2019-02-07T14:53:51.224Z,6.68
2019-02-07T14:56:42.064Z,6.81
2019-02-07T14:59:31.652Z,6.91
2019-02-07T15:02:21.133Z,6.95
2019-02-07T15:05:12.190Z,7.00
2019-02-07T15:08:01.862Z,7.00
2019-02-07T15:10:51.707Z,7.09
2019-02-07T15:13:41.614Z,7.08
2019-02-07T15:16:31.631Z,7.12
2019-02-07T15:19:21.823Z,7.16
2019-02-07T15:22:13.123Z,7.19
2019-02-07T15:25:02.880Z,7.20
2019-02-07T15:27:53.568Z,7.22
2019-02-07T15:30:43.404Z,7.24
2019-02-07T15:33:33.337Z,7.29
2019-02-07T15:36:23.220Z,7.24
2019-02-07T15:39:16.058Z,7.21
2019-02-07T15:42:06.203Z,7.13
2019-02-07T15:44:57.686Z,7.09
2019-02-07T15:47:48.101Z,7.04
2019-02-07T15:50:38.548Z,7.03
2019-02-07T15:53:29.881Z,7.05
2019-02-07T15:56:20.071Z,7.05
2019-02-07T15:59:24.387Z,7.05
2019-02-07T16:02:22.006Z,7.04
2019-02-07T16:05:12.783Z,7.02
2019-02-07T16:08:02.523Z,6.94
2019-02-07T16:10:52.524Z,7.02
2019-02-07T16:13:42.501Z,6.93
2019-02-07T16:16:31.918Z,6.94
2019-02-07T16:19:21.653Z,6.93
2019-02-07T16:22:12.033Z,6.91
2019-02-07T16:25:02.501Z,6.90
2019-02-07T16:27:52.554Z,6.95
2019-02-07T16:30:43.466Z,6.96
2019-02-07T16:33:33.624Z,7.03
2019-02-07T16:36:23.489Z,7.02
2019-02-07T16:39:14.778Z,7.01
2019-02-07T16:42:06.543Z,7.00
2019-02-07T16:44:56.638Z,7.01
2019-02-07T16:47:46.673Z,7.07
2019-02-07T16:50:37.275Z,6.97
2019-02-07T16:53:27.500Z,6.92
2019-02-07T16:56:17.086Z,6.87
2019-02-07T16:59:07.298Z,6.90
2019-02-07T17:01:57.050Z,6.90
2019-02-07T17:04:46.782Z,6.84
2019-02-07T17:07:36.578Z,6.75
2019-02-07T17:10:30.444Z,6.83
2019-02-07T17:13:19.791Z,6.83
2019-02-07T17:16:09.951Z,6.87
2019-02-07T17:18:59.937Z,6.94
2019-02-07T17:21:50.263Z,6.95
2019-02-07T17:24:40.364Z,6.94
2019-02-07T17:27:30.524Z,6.95
2019-02-07T17:30:21.286Z,6.98
2019-02-07T17:33:12.065Z,6.99
2019-02-07T17:36:01.922Z,7.00
2019-02-07T17:38:52.402Z,7.08
2019-02-07T17:41:42.314Z,7.04
2019-02-07T17:44:32.690Z,7.07
2019-02-07T17:47:22.839Z,7.11
2019-02-07T17:50:18.269Z,7.12
2019-02-07T17:53:08.421Z,7.20
2019-02-07T17:55:57.872Z,7.20
2019-02-07T17:58:47.563Z,7.20
2019-02-07T18:01:38.045Z,7.22
2019-02-07T18:04:27.729Z,7.12
2019-02-07T18:07:17.737Z,7.09
2019-02-07T18:10:09.512Z,7.08
2019-02-07T18:12:58.685Z,7.05
2019-02-07T18:15:48.746Z,7.08
2019-02-07T18:18:38.849Z,7.13
2019-02-07T18:21:34.249Z,7.11
2019-02-07T18:24:21.056Z,7.10
2019-02-07T18:27:11.297Z,7.06
2019-02-07T18:30:01.388Z,7.06
2019-02-07T18:32:51.987Z,7.09
2019-02-07T18:35:41.982Z,7.10
2019-02-07T18:38:32.132Z,7.13
2019-02-07T18:41:22.188Z,7.12
2019-02-07T18:44:12.349Z,7.13
2019-02-07T18:47:01.784Z,7.11
2019-02-07T18:49:51.492Z,7.13
2019-02-07T18:52:41.848Z,7.08
2019-02-07T18:55:32.187Z,7.03
2019-02-07T18:58:22.517Z,6.96
2019-02-07T19:01:12.528Z,6.94
2019-02-07T19:04:02.491Z,6.94
2019-02-07T19:06:52.820Z,6.85
2019-02-07T19:09:42.657Z,6.84
2019-02-07T19:12:32.753Z,6.79
2019-02-07T19:15:25.006Z,6.77
2019-02-07T19:18:14.622Z,6.75
2019-02-07T19:21:04.518Z,6.74
2019-02-07T19:23:54.989Z,6.77
2019-02-07T19:26:44.623Z,6.81
2019-02-07T19:29:34.983Z,6.82
2019-02-07T19:32:25.540Z,6.83
2019-02-07T19:35:15.794Z,6.79
2019-02-07T19:38:07.914Z,6.76
2019-02-07T19:40:58.297Z,6.72
2019-02-07T19:43:48.185Z,6.73
2019-02-07T19:46:38.722Z,6.68
2019-02-07T19:49:29.259Z,6.65
2019-02-07T19:52:19.316Z,6.59
2019-02-07T19:55:13.679Z,6.51
2019-02-07T19:58:03.860Z,6.48
2019-02-07T20:00:54.329Z,6.50
2019-02-07T20:03:44.827Z,6.47
2019-02-07T20:06:34.620Z,6.42
2019-02-07T20:09:24.421Z,6.40
2019-02-07T20:12:14.537Z,6.39
2019-02-07T20:15:08.677Z,6.36
2019-02-07T20:20:50.920Z,6.39
2019-02-07T20:23:41.184Z,6.37
2019-02-07T20:26:31.113Z,6.37
2019-02-07T20:29:21.093Z,6.41
2019-02-07T20:32:11.128Z,6.41
2019-02-07T20:35:01.230Z,6.36
2019-02-07T20:37:52.043Z,6.34
2019-02-07T20:40:42.550Z,6.32
2019-02-07T20:43:33.583Z,6.28
2019-02-07T20:46:22.702Z,6.31
2019-02-07T20:49:12.576Z,6.29
2019-02-07T20:52:02.452Z,6.30
2019-02-07T20:54:52.839Z,6.27
2019-02-07T20:57:43.332Z,6.23
2019-02-07T21:00:35.777Z,6.25
2019-02-07T21:03:25.778Z,6.21
2019-02-07T21:06:15.819Z,6.14
2019-02-07T21:09:09.422Z,6.20
2019-02-07T21:12:00.310Z,6.18
2019-02-07T21:14:49.922Z,6.21
2019-02-07T21:17:39.803Z,6.18
2019-02-07T21:20:30.117Z,6.14
2019-02-07T21:23:19.852Z,6.08
2019-02-07T21:26:10.090Z,6.04
2019-02-07T21:29:00.149Z,6.07
2019-02-07T21:31:50.327Z,6.09
2019-02-07T21:34:40.906Z,6.05
2019-02-07T21:37:30.602Z,6.05
2019-02-07T21:40:27.482Z,6.03
2019-02-07T21:43:19.006Z,6.05
2019-02-07T21:46:09.139Z,6.03
2019-02-07T21:48:59.579Z,6.04
2019-02-07T21:51:49.448Z,6.05
2019-02-07T21:54:41.222Z,6.06
2019-02-07T21:57:31.815Z,6.07
2019-02-07T22:00:34.459Z,6.05
2019-02-07T22:03:24.336Z,6.08
2019-02-07T22:06:14.257Z,6.04
2019-02-07T22:09:05.947Z,6.02
2019-02-07T22:11:56.852Z,6.08
2019-02-07T22:14:46.272Z,6.04
2019-02-07T22:17:36.492Z,6.07
2019-02-07T22:20:27.498Z,6.08
2019-02-07T22:23:17.331Z,6.06
2019-02-07T22:26:07.438Z,6.08
2019-02-07T22:28:57.338Z,6.08
2019-02-07T22:31:47.458Z,6.07
2019-02-07T22:34:39.434Z,6.06
2019-02-07T22:37:29.181Z,6.04
2019-02-07T22:40:22.067Z,6.06
2019-02-07T22:43:12.178Z,6.10
2019-02-07T22:46:02.324Z,6.09
2019-02-07T22:48:52.555Z,6.11
2019-02-07T22:51:42.949Z,6.14
2019-02-07T22:54:32.883Z,6.17
2019-02-07T22:57:22.921Z,6.19
2019-02-07T23:01:28.286Z,6.18
2019-02-07T23:04:19.315Z,6.20
2019-02-07T23:07:09.221Z,6.19
2019-02-07T23:09:59.553Z,6.26
2019-02-07T23:12:49.686Z,6.31
2019-02-07T23:15:40.443Z,6.34
2019-02-07T23:18:30.274Z,6.34
2019-02-07T23:21:19.321Z,6.36
2019-02-07T23:24:09.350Z,6.46
2019-02-07T23:27:00.748Z,6.48
2019-02-07T23:29:50.337Z,6.53
2019-02-07T23:32:40.030Z,6.54
2019-02-07T23:35:29.885Z,6.63
2019-02-07T23:38:19.733Z,6.67
2019-02-07T23:41:11.061Z,6.65
2019-02-07T23:44:01.220Z,6.69
2019-02-07T23:46:51.005Z,6.75
2019-02-07T23:49:41.183Z,6.74
2019-02-07T23:52:32.991Z,6.72
2019-02-07T23:55:23.064Z,6.72
2019-02-07T23:58:15.901Z,6.68
